createdAt,value
2023-02-28T00:00:34.678Z,2.08
2023-02-28T00:03:05.256Z,2.08
2023-02-28T00:05:38.140Z,2.10
2023-02-28T00:08:08.656Z,2.03
2023-02-28T00:10:38.908Z,2.04
2023-02-28T00:13:10.473Z,2.02
2023-02-28T00:15:40.621Z,1.96
2023-02-28T00:18:10.717Z,1.94
2023-02-28T00:20:43.421Z,1.80
2023-02-28T00:23:15.476Z,1.83
2023-02-28T00:25:45.596Z,1.71
2023-02-28T00:28:16.286Z,1.85
2023-02-28T00:30:46.684Z,1.79
2023-02-28T00:33:17.287Z,1.82
2023-02-28T00:35:50.202Z,1.79
2023-02-28T00:38:21.117Z,1.77
2023-02-28T00:40:51.297Z,1.81
2023-02-28T00:43:21.392Z,1.86
2023-02-28T00:45:51.576Z,1.92
2023-02-28T00:48:22.017Z,2.06
2023-02-28T00:50:55.798Z,2.06
2023-02-28T00:53:25.910Z,2.08
2023-02-28T00:55:56.665Z,2.08
2023-02-28T00:58:26.656Z,2.05
2023-02-28T01:00:57.402Z,2.00
2023-02-28T01:03:27.618Z,1.89
2023-02-28T01:06:00.758Z,1.87
2023-02-28T01:08:31.364Z,1.86
2023-02-28T01:11:01.564Z,1.75
2023-02-28T01:13:31.595Z,1.57
2023-02-28T01:16:01.882Z,1.61
2023-02-28T01:18:32.544Z,1.49
2023-02-28T01:21:08.039Z,1.40
2023-02-28T01:23:38.202Z,1.25
2023-02-28T01:26:09.754Z,1.19
2023-02-28T01:28:43.563Z,1.20
2023-02-28T01:31:14.427Z,1.20
2023-02-28T01:33:45.304Z,1.14
2023-02-28T01:36:20.092Z,1.10
2023-02-28T01:38:50.767Z,1.12
2023-02-28T01:41:27.747Z,1.15
2023-02-28T01:44:06.498Z,1.13
2023-02-28T01:46:38.671Z,1.09
2023-02-28T01:49:13.507Z,1.09
2023-02-28T01:51:51.944Z,1.08
2023-02-28T01:54:26.453Z,1.02
2023-02-28T01:57:00.969Z,1.01
2023-02-28T01:59:37.139Z,1.00
2023-02-28T02:02:07.617Z,1.01
2023-02-28T02:04:44.223Z,0.99
2023-02-28T02:07:18.232Z,0.88
2023-02-28T02:09:48.862Z,0.86
2023-02-28T02:12:35.196Z,0.78
2023-02-28T02:15:12.344Z,0.70
2023-02-28T02:17:46.936Z,0.60
2023-02-28T02:20:45.329Z,0.50
2023-02-28T02:23:34.300Z,0.36
2023-02-28T02:26:22.603Z,0.29
2023-02-28T02:29:32.173Z,0.22
2023-02-28T02:32:33.942Z,0.17
2023-02-28T02:35:16.131Z,0.05
2023-02-28T02:37:54.571Z,-0.07
2023-02-28T02:40:28.210Z,-0.05
2023-02-28T02:43:04.155Z,-0.02
2023-02-28T02:45:39.730Z,-0.06
2023-02-28T02:48:14.333Z,-0.10
2023-02-28T02:50:49.267Z,-0.18
2023-02-28T02:53:25.228Z,-0.23
2023-02-28T02:55:57.497Z,-0.32
2023-02-28T02:58:32.825Z,-0.31
2023-02-28T03:01:05.989Z,-0.30
2023-02-28T03:03:37.220Z,-0.36
2023-02-28T03:06:11.234Z,-0.43
2023-02-28T03:08:42.151Z,-0.48
2023-02-28T03:11:19.304Z,-0.54
2023-02-28T03:13:58.509Z,-0.57
2023-02-28T03:16:54.156Z,-0.51
2023-02-28T03:19:31.012Z,-0.52
2023-02-28T03:22:16.665Z,-0.47
2023-02-28T03:24:53.597Z,-0.35
2023-02-28T03:27:30.204Z,-0.27
2023-02-28T03:30:05.240Z,-0.21
2023-02-28T03:32:40.502Z,-0.27
2023-02-28T03:35:15.305Z,-0.31
2023-02-28T03:37:50.364Z,-0.33
2023-02-28T03:40:24.093Z,-0.25
2023-02-28T03:42:58.111Z,-0.23
2023-02-28T03:45:31.590Z,-0.23
2023-02-28T03:48:06.694Z,-0.27
2023-02-28T03:50:42.096Z,-0.24
2023-02-28T03:53:20.690Z,-0.34
2023-02-28T03:55:54.362Z,-0.35
2023-02-28T03:58:31.103Z,-0.38
2023-02-28T04:01:09.691Z,-0.26
2023-02-28T04:03:40.829Z,-0.26
2023-02-28T04:06:17.019Z,-0.26
2023-02-28T04:08:49.955Z,-0.24
2023-02-28T04:11:26.258Z,-0.21
2023-02-28T04:13:56.628Z,-0.18
2023-02-28T04:16:35.101Z,-0.18
2023-02-28T04:19:06.948Z,-0.16
2023-02-28T04:21:38.595Z,-0.17
2023-02-28T04:24:15.444Z,-0.31
2023-02-28T04:26:47.451Z,-0.46
2023-02-28T04:29:22.188Z,-0.55
2023-02-28T04:31:52.449Z,-0.62
2023-02-28T04:34:22.496Z,-0.66
2023-02-28T04:37:10.355Z,-0.70
2023-02-28T04:39:45.971Z,-0.77
2023-02-28T04:42:18.692Z,-0.80
2023-02-28T04:44:48.857Z,-0.84
2023-02-28T04:47:19.179Z,-0.88
2023-02-28T04:49:49.654Z,-0.93
2023-02-28T04:52:19.653Z,-1.12
2023-02-28T04:54:52.663Z,-0.95
2023-02-28T04:57:22.599Z,-0.95
2023-02-28T04:59:52.576Z,-0.89
2023-02-28T05:02:22.760Z,-0.90
2023-02-28T05:04:52.987Z,-0.88
2023-02-28T05:07:23.233Z,-0.86
2023-02-28T05:09:56.110Z,-0.93
2023-02-28T05:12:26.114Z,-1.00
2023-02-28T05:14:56.215Z,-1.05
2023-02-28T05:17:26.305Z,-1.21
2023-02-28T05:20:06.507Z,-1.10
2023-02-28T05:22:44.076Z,-1.00
2023-02-28T05:25:24.989Z,-1.23
2023-02-28T05:27:55.016Z,-1.03
2023-02-28T05:30:25.212Z,-1.00
2023-02-28T05:32:55.930Z,-1.20
2023-02-28T05:35:26.121Z,-1.00
2023-02-28T05:37:56.379Z,-1.01
2023-02-28T05:40:29.100Z,-0.99
2023-02-28T05:42:59.110Z,-0.97
2023-02-28T05:45:29.586Z,-1.01
2023-02-28T05:48:00.189Z,-0.91
2023-02-28T05:50:30.405Z,-0.93
2023-02-28T05:53:00.351Z,-0.99
2023-02-28T05:55:33.238Z,-0.77
2023-02-28T05:58:03.694Z,-0.76
2023-02-28T06:00:34.017Z,-0.74
2023-02-28T06:03:04.210Z,-0.73
2023-02-28T06:05:34.873Z,-0.77
2023-02-28T06:08:04.834Z,-0.74
2023-02-28T06:10:37.716Z,-0.69
2023-02-28T06:13:08.719Z,-0.68
2023-02-28T06:15:38.850Z,-0.67
2023-02-28T06:18:09.331Z,-0.63
2023-02-28T06:20:39.292Z,-0.61
2023-02-28T06:23:09.635Z,-0.72
2023-02-28T06:25:42.297Z,-0.58
2023-02-28T06:28:12.301Z,-0.68
2023-02-28T06:30:44.468Z,-0.50
2023-02-28T06:33:15.530Z,-0.53
2023-02-28T06:35:47.898Z,-0.45
2023-02-28T06:38:19.200Z,-0.44
2023-02-28T06:40:57.731Z,-0.38
2023-02-28T06:43:29.731Z,-0.38
2023-02-28T06:46:01.004Z,-0.29
2023-02-28T06:48:31.539Z,-0.24
2023-02-28T06:51:09.572Z,-0.42
2023-02-28T06:53:39.935Z,-0.18
2023-02-28T06:56:14.796Z,-0.13
2023-02-28T06:58:45.512Z,-0.10
2023-02-28T07:01:17.449Z,-0.13
2023-02-28T07:03:47.693Z,-0.13
2023-02-28T07:06:19.043Z,-0.06
2023-02-28T07:08:49.263Z,-0.05
2023-02-28T07:11:23.562Z,0.04
2023-02-28T07:13:53.496Z,-0.02
2023-02-28T07:16:24.545Z,-0.06
2023-02-28T07:18:57.008Z,-0.08
2023-02-28T07:21:27.323Z,0.03
2023-02-28T07:23:57.720Z,0.17
2023-02-28T07:26:30.792Z,0.18
2023-02-28T07:29:00.896Z,0.15
2023-02-28T07:31:31.552Z,0.01
2023-02-28T07:34:01.707Z,0.13
2023-02-28T07:36:31.707Z,0.18
2023-02-28T07:39:02.677Z,0.25
2023-02-28T07:41:38.729Z,0.28
2023-02-28T07:44:09.058Z,0.34
2023-02-28T07:46:39.145Z,0.41
2023-02-28T07:49:10.535Z,0.42
2023-02-28T07:51:40.641Z,0.51
2023-02-28T07:54:14.823Z,0.53
2023-02-28T07:56:47.528Z,0.56
2023-02-28T07:59:17.564Z,0.36
2023-02-28T08:01:47.879Z,0.67
2023-02-28T08:04:18.146Z,0.75
2023-02-28T08:06:49.776Z,0.81
2023-02-28T08:09:22.409Z,0.89
2023-02-28T08:11:55.298Z,0.76
2023-02-28T08:14:25.635Z,0.88
2023-02-28T08:16:55.872Z,1.09
2023-02-28T08:19:26.263Z,1.21
2023-02-28T08:21:56.308Z,1.25
2023-02-28T08:24:27.086Z,1.28
2023-02-28T08:26:59.795Z,1.37
2023-02-28T08:29:31.284Z,1.44
2023-02-28T08:32:01.521Z,1.49
2023-02-28T08:34:31.710Z,1.56
2023-02-28T08:37:01.644Z,1.60
2023-02-28T08:39:31.732Z,1.58
2023-02-28T08:42:08.224Z,1.74
2023-02-28T08:44:38.560Z,1.88
2023-02-28T08:47:08.786Z,1.98
2023-02-28T08:49:38.963Z,2.03
2023-02-28T08:52:12.004Z,2.11
2023-02-28T08:54:42.054Z,2.00
2023-02-28T08:57:14.669Z,2.33
2023-02-28T08:59:44.767Z,2.44
2023-02-28T09:02:17.191Z,2.54
2023-02-28T09:04:48.272Z,2.66
2023-02-28T09:07:18.309Z,2.76
2023-02-28T09:09:58.752Z,2.75
2023-02-28T09:12:36.398Z,2.94
2023-02-28T09:15:07.526Z,2.79
2023-02-28T09:17:37.903Z,2.99
2023-02-28T09:20:09.545Z,3.06
2023-02-28T09:22:39.809Z,3.19
2023-02-28T09:25:10.749Z,3.26
2023-02-28T09:27:43.460Z,3.32
2023-02-28T09:30:15.262Z,3.19
2023-02-28T09:32:53.180Z,3.45
2023-02-28T09:35:23.551Z,3.59
2023-02-28T09:37:55.384Z,3.55
2023-02-28T09:40:27.541Z,3.46
2023-02-28T09:43:03.629Z,3.44
2023-02-28T09:45:37.702Z,3.56
2023-02-28T09:48:13.705Z,3.66
2023-02-28T09:50:46.394Z,3.69
2023-02-28T09:53:24.173Z,3.74
2023-02-28T09:55:58.620Z,3.63
2023-02-28T09:58:41.109Z,3.83
2023-02-28T10:01:16.855Z,3.86
2023-02-28T10:03:53.227Z,3.94
2023-02-28T10:06:26.652Z,4.01
2023-02-28T10:09:04.775Z,4.14
2023-02-28T10:11:38.087Z,4.15
2023-02-28T10:14:17.023Z,4.20
2023-02-28T10:16:53.124Z,4.28
2023-02-28T10:19:27.848Z,4.37
2023-02-28T10:22:01.724Z,4.40
2023-02-28T10:24:36.356Z,4.32
2023-02-28T10:27:18.321Z,4.35
2023-02-28T10:29:56.093Z,4.39
2023-02-28T10:32:29.408Z,4.49
2023-02-28T10:35:03.405Z,4.63
2023-02-28T10:37:39.114Z,4.71
2023-02-28T10:40:11.128Z,4.63
2023-02-28T10:42:42.138Z,4.67
2023-02-28T10:45:19.908Z,4.74
2023-02-28T10:47:57.150Z,4.78
2023-02-28T10:50:39.152Z,4.80
2023-02-28T10:53:20.391Z,4.89
2023-02-28T10:56:01.943Z,5.16
2023-02-28T10:58:34.000Z,5.11
2023-02-28T11:01:07.067Z,4.88
2023-02-28T11:03:39.190Z,4.85
2023-02-28T11:06:12.090Z,4.99
2023-02-28T11:08:49.659Z,4.98
2023-02-28T11:11:21.008Z,5.00
2023-02-28T11:13:54.577Z,5.18
2023-02-28T11:16:37.066Z,5.13
2023-02-28T11:19:08.360Z,5.33
2023-02-28T11:21:41.833Z,5.46
2023-02-28T11:24:26.289Z,5.41
2023-02-28T11:26:56.756Z,5.68
2023-02-28T11:29:29.582Z,5.74
2023-02-28T11:32:17.302Z,5.91
2023-02-28T11:34:48.377Z,5.92
2023-02-28T11:37:25.798Z,5.93
2023-02-28T11:39:55.892Z,5.82
2023-02-28T11:42:48.123Z,5.88
2023-02-28T11:45:48.937Z,5.82
2023-02-28T11:48:26.973Z,5.80
2023-02-28T11:51:09.308Z,5.83
2023-02-28T11:53:59.279Z,5.77
2023-02-28T11:56:35.415Z,5.67
2023-02-28T11:59:30.854Z,5.81
2023-02-28T12:02:27.626Z,5.87
2023-02-28T12:05:15.300Z,5.99
2023-02-28T12:07:54.878Z,6.15
2023-02-28T12:10:29.063Z,6.19
2023-02-28T12:13:22.699Z,6.33
2023-02-28T12:16:04.302Z,6.28
2023-02-28T12:18:57.352Z,6.07
2023-02-28T12:21:40.773Z,5.80
2023-02-28T12:24:35.124Z,5.75
2023-02-28T12:27:09.543Z,5.79
2023-02-28T12:29:47.026Z,5.80
2023-02-28T12:32:21.547Z,5.66
2023-02-28T12:34:55.874Z,5.70
2023-02-28T12:37:32.534Z,5.71
2023-02-28T12:40:07.699Z,5.68
2023-02-28T12:42:43.305Z,5.54
2023-02-28T12:45:21.863Z,5.31
2023-02-28T12:48:01.977Z,5.19
2023-02-28T12:50:34.536Z,5.21
2023-02-28T12:53:15.437Z,5.23
2023-02-28T12:55:55.095Z,5.10
2023-02-28T12:58:37.049Z,5.08
2023-02-28T13:01:38.644Z,5.14
2023-02-28T13:04:47.499Z,5.19
2023-02-28T13:07:45.925Z,5.35
2023-02-28T13:10:21.520Z,5.22
2023-02-28T13:12:54.701Z,5.21
2023-02-28T13:15:30.778Z,5.16
2023-02-28T13:18:04.484Z,5.17
2023-02-28T13:20:39.377Z,4.86
2023-02-28T13:23:45.723Z,5.14
2023-02-28T13:26:20.067Z,5.15
2023-02-28T13:29:35.198Z,5.19
2023-02-28T13:32:39.254Z,5.28
2023-02-28T13:35:43.756Z,5.30
2023-02-28T13:38:38.743Z,5.36
2023-02-28T13:41:42.834Z,5.31
2023-02-28T13:44:19.232Z,5.15
2023-02-28T13:47:20.036Z,5.16
2023-02-28T13:49:51.901Z,5.19
2023-02-28T13:52:27.301Z,5.20
2023-02-28T13:55:31.826Z,5.24
2023-02-28T13:58:27.708Z,5.19
2023-02-28T14:01:25.183Z,5.25
2023-02-28T14:04:15.045Z,5.15
2023-02-28T14:06:53.684Z,5.28
2023-02-28T14:09:30.854Z,5.28
2023-02-28T14:12:22.846Z,5.25
2023-02-28T14:15:01.419Z,5.22
2023-02-28T14:17:36.447Z,5.24
2023-02-28T14:20:09.034Z,5.23
2023-02-28T14:22:59.874Z,5.22
2023-02-28T14:25:41.557Z,5.33
2023-02-28T14:28:21.913Z,5.39
2023-02-28T14:31:11.087Z,5.48
2023-02-28T14:34:07.358Z,5.39
2023-02-28T14:36:41.637Z,5.17
2023-02-28T14:39:17.342Z,5.37
2023-02-28T14:41:48.920Z,5.42
2023-02-28T14:44:22.611Z,5.47
2023-02-28T14:46:56.628Z,5.48
2023-02-28T14:49:31.307Z,5.48
2023-02-28T14:52:13.002Z,5.49
2023-02-28T14:54:44.552Z,5.48
2023-02-28T14:57:26.759Z,5.45
2023-02-28T15:00:12.708Z,5.59
2023-02-28T15:02:43.567Z,5.81
2023-02-28T15:05:34.350Z,6.15
2023-02-28T15:08:10.489Z,6.59
2023-02-28T15:10:41.324Z,6.67
2023-02-28T15:13:17.051Z,6.27
2023-02-28T15:16:01.944Z,5.80
2023-02-28T15:18:42.441Z,5.74
2023-02-28T15:21:18.803Z,5.60
2023-02-28T15:23:54.801Z,5.46
2023-02-28T15:26:30.198Z,5.47
2023-02-28T15:29:04.701Z,5.48
2023-02-28T15:31:55.337Z,5.42
2023-02-28T15:34:42.228Z,5.35
2023-02-28T15:37:34.962Z,5.32
2023-02-28T15:40:17.703Z,5.35
2023-02-28T15:43:03.822Z,5.32
2023-02-28T15:45:42.560Z,5.26
2023-02-28T15:48:23.993Z,5.06
2023-02-28T15:51:00.227Z,5.18
2023-02-28T15:53:38.122Z,5.11
2023-02-28T15:56:19.634Z,5.05
2023-02-28T15:58:54.815Z,5.02
2023-02-28T16:01:31.556Z,5.04
2023-02-28T16:04:06.300Z,4.88
2023-02-28T16:06:44.452Z,4.91
2023-02-28T16:09:21.711Z,4.85
2023-02-28T16:11:55.435Z,4.81
2023-02-28T16:14:28.909Z,4.79
2023-02-28T16:17:06.884Z,4.78
2023-02-28T16:19:38.774Z,4.73
2023-02-28T16:22:10.246Z,4.69
2023-02-28T16:24:44.713Z,4.67
2023-02-28T16:27:23.248Z,4.64
2023-02-28T16:29:55.864Z,4.62
2023-02-28T16:32:28.101Z,4.56
2023-02-28T16:34:59.681Z,4.45
2023-02-28T16:37:32.874Z,4.50
2023-02-28T16:40:07.760Z,4.48
2023-02-28T16:42:42.190Z,4.43
2023-02-28T16:45:22.027Z,4.34
2023-02-28T16:47:53.570Z,4.32
2023-02-28T16:50:27.260Z,4.29
2023-02-28T16:52:59.613Z,4.25
2023-02-28T16:55:34.185Z,4.21
2023-02-28T16:58:07.461Z,4.18
2023-02-28T17:00:40.315Z,4.13
2023-02-28T17:03:30.780Z,4.01
2023-02-28T17:06:04.676Z,4.03
2023-02-28T17:08:40.071Z,4.01
2023-02-28T17:11:14.661Z,3.95
2023-02-28T17:13:46.606Z,3.94
2023-02-28T17:16:25.117Z,3.74
2023-02-28T17:18:58.252Z,3.72
2023-02-28T17:21:29.932Z,3.88
2023-02-28T17:24:01.706Z,3.83
2023-02-28T17:26:36.167Z,3.64
2023-02-28T17:29:11.221Z,3.73
2023-02-28T17:31:43.049Z,3.71
2023-02-28T17:34:19.585Z,3.71
2023-02-28T17:36:53.466Z,3.48
2023-02-28T17:39:25.675Z,3.66
2023-02-28T17:42:00.621Z,3.65
2023-02-28T17:44:32.137Z,3.64
2023-02-28T17:47:04.477Z,3.64
2023-02-28T17:49:35.972Z,3.64
2023-02-28T17:52:07.941Z,3.60
2023-02-28T17:54:39.855Z,3.60
2023-02-28T17:57:23.131Z,3.59
2023-02-28T17:59:58.158Z,3.41
2023-02-28T18:02:30.485Z,3.59
2023-02-28T18:05:01.971Z,3.57
2023-02-28T18:07:34.964Z,3.53
2023-02-28T18:10:06.397Z,3.48
2023-02-28T18:12:39.469Z,3.43
2023-02-28T18:15:11.869Z,3.39
2023-02-28T18:17:43.185Z,3.38
2023-02-28T18:20:15.929Z,3.35
2023-02-28T18:22:49.211Z,3.33
2023-02-28T18:25:23.631Z,3.27
2023-02-28T18:27:58.917Z,3.28
2023-02-28T18:30:35.344Z,3.25
2023-02-28T18:33:07.690Z,3.10
2023-02-28T18:35:39.966Z,3.14
2023-02-28T18:38:15.296Z,3.14
2023-02-28T18:40:55.030Z,3.02
2023-02-28T18:43:29.481Z,3.07
2023-02-28T18:46:01.327Z,2.99
2023-02-28T18:48:35.686Z,3.03
2023-02-28T18:51:11.831Z,2.97
2023-02-28T18:53:46.297Z,2.90
2023-02-28T18:56:18.713Z,2.88
2023-02-28T18:58:53.670Z,2.87
2023-02-28T19:01:31.368Z,2.83
2023-02-28T19:04:04.526Z,2.77
2023-02-28T19:06:38.665Z,2.70
2023-02-28T19:09:10.909Z,2.64
2023-02-28T19:11:43.515Z,2.61
2023-02-28T19:14:16.756Z,2.58
2023-02-28T19:16:48.944Z,2.56
2023-02-28T19:19:21.546Z,2.50
2023-02-28T19:21:55.402Z,2.46
2023-02-28T19:24:27.532Z,2.41
2023-02-28T19:26:58.769Z,2.38
2023-02-28T19:29:31.617Z,2.34
2023-02-28T19:32:01.868Z,2.34
2023-02-28T19:34:32.091Z,2.31
2023-02-28T19:37:02.103Z,2.31
2023-02-28T19:39:41.150Z,2.27
2023-02-28T19:42:13.636Z,2.26
2023-02-28T19:44:48.488Z,2.20
2023-02-28T19:47:25.653Z,2.21
2023-02-28T19:49:57.136Z,2.17
2023-02-28T19:52:28.859Z,2.13
2023-02-28T19:55:00.770Z,2.02
2023-02-28T19:57:32.375Z,2.13
2023-02-28T20:00:07.208Z,2.12
2023-02-28T20:02:44.154Z,2.05
2023-02-28T20:05:14.878Z,2.02
2023-02-28T20:07:46.359Z,1.99
2023-02-28T20:10:18.031Z,1.98
2023-02-28T20:12:49.437Z,1.99
2023-02-28T20:15:23.668Z,1.94
2023-02-28T20:17:57.841Z,1.92
2023-02-28T20:20:30.080Z,1.90
2023-02-28T20:23:02.024Z,1.89
2023-02-28T20:25:32.979Z,1.91
2023-02-28T20:28:03.277Z,1.90
2023-02-28T20:30:38.161Z,1.88
2023-02-28T20:33:10.473Z,1.83
2023-02-28T20:35:41.856Z,1.80
2023-02-28T20:38:13.665Z,1.79
2023-02-28T20:40:44.089Z,1.80
2023-02-28T20:43:14.270Z,1.76
2023-02-28T20:45:54.975Z,1.75
2023-02-28T20:48:25.671Z,1.74
2023-02-28T20:50:59.090Z,1.69
2023-02-28T20:53:32.048Z,1.68
2023-02-28T20:56:04.216Z,1.67
2023-02-28T20:58:37.302Z,1.71
2023-02-28T21:01:16.172Z,1.75
2023-02-28T21:03:46.645Z,1.76
2023-02-28T21:06:17.569Z,1.76
2023-02-28T21:08:48.207Z,1.57
2023-02-28T21:11:20.428Z,1.70
2023-02-28T21:13:51.507Z,1.63
2023-02-28T21:16:26.202Z,1.58
2023-02-28T21:18:56.191Z,1.48
2023-02-28T21:21:27.722Z,1.54
2023-02-28T21:23:57.674Z,1.63
2023-02-28T21:26:28.633Z,1.64
2023-02-28T21:29:00.712Z,1.58
2023-02-28T21:31:35.891Z,1.51
2023-02-28T21:34:08.426Z,1.41
2023-02-28T21:36:41.061Z,1.33
2023-02-28T21:39:13.291Z,1.23
2023-02-28T21:41:43.621Z,1.27
2023-02-28T21:44:18.952Z,1.26
2023-02-28T21:46:57.086Z,1.24
2023-02-28T21:49:27.308Z,1.21
2023-02-28T21:51:57.294Z,1.27
2023-02-28T21:54:27.666Z,1.25
2023-02-28T21:56:59.814Z,1.22
2023-02-28T21:59:30.458Z,1.14
2023-02-28T22:02:05.570Z,1.02
2023-02-28T22:04:36.278Z,0.88
2023-02-28T22:07:07.620Z,0.90
2023-02-28T22:09:37.571Z,0.82
2023-02-28T22:12:08.628Z,0.66
2023-02-28T22:14:39.834Z,0.68
2023-02-28T22:17:12.519Z,0.82
2023-02-28T22:19:43.153Z,0.83
2023-02-28T22:22:13.444Z,0.81
2023-02-28T22:24:43.695Z,0.74
2023-02-28T22:27:13.816Z,0.68
2023-02-28T22:29:44.098Z,0.71
2023-02-28T22:32:16.920Z,0.72
2023-02-28T22:34:47.508Z,0.63
2023-02-28T22:37:17.790Z,0.74
2023-02-28T22:39:47.884Z,0.69
2023-02-28T22:42:17.968Z,0.70
2023-02-28T22:44:48.984Z,0.71
2023-02-28T22:47:22.594Z,0.73
2023-02-28T22:49:52.762Z,0.67
2023-02-28T22:52:22.785Z,0.65
2023-02-28T22:54:53.960Z,0.61
2023-02-28T22:57:24.311Z,0.54
2023-02-28T22:59:54.250Z,0.50
2023-02-28T23:02:27.120Z,0.47
2023-02-28T23:04:57.975Z,0.28
2023-02-28T23:07:28.162Z,0.50
2023-02-28T23:09:58.272Z,0.55
2023-02-28T23:12:28.336Z,0.54
2023-02-28T23:14:58.258Z,0.49
2023-02-28T23:17:31.030Z,0.55
2023-02-28T23:20:01.591Z,0.59
2023-02-28T23:22:31.709Z,0.51
2023-02-28T23:25:01.929Z,0.36
2023-02-28T23:27:32.290Z,0.22
2023-02-28T23:30:03.062Z,0.24
2023-02-28T23:32:35.951Z,0.23
2023-02-28T23:35:07.152Z,0.26
2023-02-28T23:37:37.660Z,0.24
2023-02-28T23:40:10.930Z,0.14
2023-02-28T23:42:40.948Z,0.07
2023-02-28T23:45:12.545Z,-0.03
2023-02-28T23:47:45.337Z,-0.05
2023-02-28T23:50:15.639Z,-0.18
2023-02-28T23:52:45.638Z,-0.09
2023-02-28T23:55:15.664Z,-0.30
2023-02-28T23:57:45.894Z,-0.10
